TimeEST,TemperatureF,Dew PointF,Humidity,Sea Level PressureIn,VisibilityMPH,Wind Direction,Wind SpeedMPH,Gust SpeedMPH,PrecipitationIn,Events,Conditions,WindDirDegrees,DateUTC
12:00 AM,39.2,35.6,87,29.71,10.0,WSW,11.5,18.4,N/A,,Overcast,250,2011-12-31 05:00:00
12:26 AM,37.4,33.8,87,29.72,10.0,WSW,15.0,21.9,N/A,,Overcast,250,2011-12-31 05:26:00
12:53 AM,37.9,34.0,86,29.73,10.0,WSW,13.8,19.6,N/A,,Overcast,250,2011-12-31 05:53:00
1:49 AM,37.4,35.6,93,29.74,4.0,WSW,10.4,-,N/A,,Overcast,250,2011-12-31 06:49:00
1:53 AM,37.9,35.1,89,29.75,3.0,WSW,10.4,-,N/A,,Overcast,250,2011-12-31 06:53:00
2:02 AM,37.4,35.6,93,29.74,2.5,WSW,10.4,-,N/A,,Overcast,250,2011-12-31 07:02:00
3:48 AM,39.2,37.4,93,29.81,2.0,West,11.5,-,N/A,,Overcast,270,2011-12-31 08:48:00
3:53 AM,39.0,37.9,96,29.82,2.0,West,13.8,20.7,N/A,,Overcast,260,2011-12-31 08:53:00
4:21 AM,39.2,37.4,93,29.83,3.0,WNW,19.6,27.6,N/A,,Overcast,290,2011-12-31 09:21:00
4:53 AM,39.0,37.0,93,29.85,4.0,WNW,16.1,24.2,N/A,,Overcast,290,2011-12-31 09:53:00
5:32 AM,39.2,35.6,87,29.86,8.0,WNW,15.0,24.2,N/A,,Overcast,290,2011-12-31 10:32:00
5:53 AM,39.0,36.0,89,29.89,6.0,WNW,13.8,21.9,N/A,,Overcast,300,2011-12-31 10:53:00
6:24 AM,39.2,35.6,87,29.90,10.0,WNW,11.5,-,N/A,,Overcast,300,2011-12-31 11:24:00
7:24 AM,39.2,35.6,87,29.94,9.0,WNW,8.1,-,N/A,,Overcast,300,2011-12-31 12:24:00
7:51 AM,39.2,35.6,87,29.95,8.0,WNW,8.1,-,N/A,,Overcast,300,2011-12-31 12:51:00
7:53 AM,39.0,36.0,89,29.95,8.0,WNW,6.9,-,N/A,,Overcast,300,2011-12-31 12:53:00
8:53 AM,39.0,35.1,86,29.99,9.0,WNW,6.9,-,N/A,,Overcast,290,2011-12-31 13:53:00
9:53 AM,39.0,35.1,86,30.04,10.0,WNW,5.8,-,N/A,,Overcast,300,2011-12-31 14:53:00
10:18 AM,39.2,35.6,87,30.04,7.0,West,6.9,-,N/A,,Overcast,270,2011-12-31 15:18:00
10:41 AM,37.4,35.6,93,30.05,6.0,West,10.4,-,N/A,,Overcast,270,2011-12-31 15:41:00
10:53 AM,37.9,35.1,89,30.07,6.0,West,6.9,-,N/A,,Overcast,270,2011-12-31 15:53:00
11:11 AM,37.4,35.6,93,30.05,6.0,West,6.9,-,N/A,,Overcast,270,2011-12-31 16:11:00
11:53 AM,37.9,35.1,89,30.06,7.0,West,6.9,-,N/A,,Overcast,260,2011-12-31 16:53:00
12:21 PM,39.2,35.6,87,30.05,7.0,West,8.1,-,N/A,,Overcast,270,2011-12-31 17:21:00
12:53 PM,39.0,35.1,86,30.04,10.0,West,6.9,-,N/A,,Overcast,280,2011-12-31 17:53:00
1:32 PM,39.2,33.8,81,30.02,10.0,WSW,10.4,-,N/A,,Overcast,240,2011-12-31 18:32:00
1:53 PM,39.0,33.1,79,30.02,10.0,SSW,9.2,-,N/A,,Overcast,210,2011-12-31 18:53:00
2:05 PM,39.2,33.8,81,30.01,10.0,SW,8.1,-,N/A,,Overcast,220,2011-12-31 19:05:00
2:18 PM,39.2,33.8,81,30.01,10.0,SW,8.1,-,N/A,,Overcast,230,2011-12-31 19:18:00
2:53 PM,39.0,33.1,79,30.00,10.0,SW,8.1,-,N/A,,Overcast,220,2011-12-31 19:53:00
3:53 PM,37.9,33.1,83,30.02,10.0,SSW,12.7,-,N/A,,Overcast,210,2011-12-31 20:53:00
4:33 PM,37.4,33.8,87,30.02,10.0,South,11.5,-,N/A,,Overcast,190,2011-12-31 21:33:00
4:53 PM,37.9,34.0,86,30.02,9.0,SSW,10.4,-,N/A,,Overcast,200,2011-12-31 21:53:00
5:53 PM,37.9,34.0,86,30.03,10.0,South,10.4,-,N/A,,Overcast,190,2011-12-31 22:53:00
6:44 PM,39.2,35.6,87,30.01,10.0,South,12.7,-,N/A,,Overcast,180,2011-12-31 23:44:00
6:53 PM,39.0,34.0,82,30.02,10.0,South,10.4,-,N/A,,Overcast,180,2011-12-31 23:53:00
7:53 PM,39.0,34.0,82,30.01,10.0,South,10.4,18.4,N/A,,Overcast,170,2012-01-01 00:53:00
8:43 PM,37.4,33.8,87,29.98,10.0,SSE,8.1,-,N/A,,Scattered Clouds,160,2012-01-01 01:43:00
8:53 PM,37.9,34.0,86,29.99,10.0,South,6.9,-,N/A,,Partly Cloudy,170,2012-01-01 01:53:00
9:53 PM,37.0,34.0,89,29.96,10.0,SSE,9.2,-,N/A,,Clear,160,2012-01-01 02:53:00
10:53 PM,39.0,34.0,82,29.93,10.0,SSE,10.4,-,N/A,,Clear,160,2012-01-01 03:53:00